Capitol Logistics 1149


EBLG
Liège Airport
Liege, BE
EHAM
Schiphol International Airport
Amsterdam, NL

Activity Log

Date Flight Route Aircraft Duration
11/13/2019 CPX749 Not Available B738 0h 50m

Route Details

Aircraft Information
Primary: Boeing 737-800BCF
Backup: Not Available
Route Data
Distance: 104nm
Sched. Duration: 0h 35m
Avg. Duration: 0h 50m (+15m)
Times Flown: 1
Recm'd Route: Not Available
Planned Altitude: 21,000ft
Origin Wx: EBLG 270020Z 23009KT 9999 FEW022 BKN032 02/01 Q1007 NOSIG
Dest. Wx: EHAM 270025Z 16007KT 9999 FEW020CB 02/01 Q1004 NOSIG
Notes:

Financial History
Total Freight: 29,041lbs
Average Load: 29,041lbs/flt
Fuel Used: 3,600lbs
Avg. Fuel Used: 3,600lbs/flt
Fuel Expense: $3,996
Avg. Fuel Expense: $3,996
Avg. Fuel Cost: $1.11/lbs
Total Gross Income: $60,696
Pilot Pay: $239
Total Expenses: $6,607
Total Revenue: $49,893
Average Revenue: $60,695.69